sensor_id;sensor_type;location;lat;lon;timestamp;pressure;altitude;pressure_sealevel;temperature;humidity
37486;BME280;23341;50.296;18.960;2023-04-01T00:00:17;41739.19;;;-144.43;100.00
37486;BME280;23341;50.296;18.960;2023-04-01T00:05:44;41755.16;;;-144.43;100.00
37486;BME280;23341;50.296;18.960;2023-04-01T00:10:48;41703.28;;;-144.43;100.00
37486;BME280;23341;50.296;18.960;2023-04-01T00:15:54;41735.22;;;-144.43;100.00
37486;BME280;23341;50.296;18.960;2023-04-01T00:21:01;41707.28;;;-144.43;100.00
37486;BME280;23341;50.296;18.960;2023-04-01T00:26:05;41741.19;;;-144.43;100.00
37486;BME280;23341;50.296;18.960;2023-04-01T00:31:11;41705.28;;;-144.43;100.00
37486;BME280;23341;50.296;18.960;2023-04-01T00:36:20;41699.31;;;-144.43;100.00
37486;BME280;23341;50.296;18.960;2023-04-01T00:41:26;41727.22;;;-144.43;100.00
37486;BME280;23341;50.296;18.960;2023-04-01T00:46:31;41695.31;;;-144.43;100.00
37486;BME280;23341;50.296;18.960;2023-04-01T00:51:37;41647.44;;;-144.43;100.00
37486;BME280;23341;50.296;18.960;2023-04-01T00:56:46;41647.44;;;-144.43;100.00
37486;BME280;23341;50.296;18.960;2023-04-01T01:01:52;41625.50;;;-144.43;100.00
37486;BME280;23341;50.296;18.960;2023-04-01T01:07:08;41595.59;;;-144.43;100.00
37486;BME280;23341;50.296;18.960;2023-04-01T01:12:18;41607.56;;;-144.43;100.00
37486;BME280;23341;50.296;18.960;2023-04-01T01:17:32;41605.56;;;-144.43;100.00
37486;BME280;23341;50.296;18.960;2023-04-01T01:28:35;41581.63;;;-144.43;100.00
37486;BME280;23341;50.296;18.960;2023-04-01T01:34:00;41589.59;;;-144.43;100.00
37486;BME280;23341;50.296;18.960;2023-04-01T01:39:08;41555.69;;;-144.43;100.00
37486;BME280;23341;50.296;18.960;2023-04-01T01:44:14;41549.72;;;-144.43;100.00
37486;BME280;23341;50.296;18.960;2023-04-01T01:49:20;41555.69;;;-144.43;100.00
37486;BME280;23341;50.296;18.960;2023-04-01T01:54:26;41517.78;;;-144.43;100.00
37486;BME280;23341;50.296;18.960;2023-04-01T01:59:32;41519.78;;;-144.43;100.00
37486;BME280;23341;50.296;18.960;2023-04-01T02:04:41;41485.88;;;-144.43;100.00
37486;BME280;23341;50.296;18.960;2023-04-01T02:09:48;41479.88;;;-144.43;100.00
37486;BME280;23341;50.296;18.960;2023-04-01T02:14:57;41503.81;;;-144.43;100.00
37486;BME280;23341;50.296;18.960;2023-04-01T02:20:07;41459.94;;;-144.43;100.00
37486;BME280;23341;50.296;18.960;2023-04-01T02:25:18;41451.97;;;-144.43;100.00
37486;BME280;23341;50.296;18.960;2023-04-01T02:30:23;41475.91;;;-144.43;100.00
37486;BME280;23341;50.296;18.960;2023-04-01T02:35:28;41455.97;;;-144.43;100.00
37486;BME280;23341;50.296;18.960;2023-04-01T02:40:46;41459.94;;;-144.43;100.00
37486;BME280;23341;50.296;18.960;2023-04-01T02:45:51;41461.94;;;-144.43;100.00
37486;BME280;23341;50.296;18.960;2023-04-01T02:50:56;41436.00;;;-144.43;100.00
37486;BME280;23341;50.296;18.960;2023-04-01T02:56:02;41487.88;;;-144.43;100.00
37486;BME280;23341;50.296;18.960;2023-04-01T03:01:06;41463.94;;;-144.43;100.00
37486;BME280;23341;50.296;18.960;2023-04-01T03:06:13;41447.97;;;-144.43;100.00
37486;BME280;23341;50.296;18.960;2023-04-01T03:11:19;41447.97;;;-144.43;100.00
37486;BME280;23341;50.296;18.960;2023-04-01T03:16:24;41479.88;;;-144.43;100.00
37486;BME280;23341;50.296;18.960;2023-04-01T03:21:28;41440.00;;;-144.43;100.00
37486;BME280;23341;50.296;18.960;2023-04-01T03:26:34;41459.94;;;-144.43;100.00
37486;BME280;23341;50.296;18.960;2023-04-01T03:31:38;41477.91;;;-144.43;100.00
37486;BME280;23341;50.296;18.960;2023-04-01T03:36:43;41471.91;;;-144.43;100.00
37486;BME280;23341;50.296;18.960;2023-04-01T03:41:49;41451.97;;;-144.43;100.00
37486;BME280;23341;50.296;18.960;2023-04-01T03:46:54;41440.00;;;-144.43;100.00
37486;BME280;23341;50.296;18.960;2023-04-01T03:51:58;41440.00;;;-144.43;100.00
37486;BME280;23341;50.296;18.960;2023-04-01T03:57:04;41420.06;;;-144.43;100.00
37486;BME280;23341;50.296;18.960;2023-04-01T04:02:09;41447.97;;;-144.43;100.00
37486;BME280;23341;50.296;18.960;2023-04-01T04:07:15;41451.97;;;-144.43;100.00
37486;BME280;23341;50.296;18.960;2023-04-01T04:12:37;41471.91;;;-144.43;100.00
37486;BME280;23341;50.296;18.960;2023-04-01T04:17:41;41487.88;;;-144.43;100.00
37486;BME280;23341;50.296;18.960;2023-04-01T04:22:46;41461.94;;;-144.43;100.00
37486;BME280;23341;50.296;18.960;2023-04-01T04:27:51;41451.97;;;-144.43;100.00
37486;BME280;23341;50.296;18.960;2023-04-01T04:32:56;41583.63;;;-144.43;100.00
37486;BME280;23341;50.296;18.960;2023-04-01T04:38:01;41695.31;;;-144.43;100.00
37486;BME280;23341;50.296;18.960;2023-04-01T04:43:06;41819.00;;;-144.43;100.00
37486;BME280;23341;50.296;18.960;2023-04-01T04:48:12;41862.88;;;-144.43;100.00
37486;BME280;23341;50.296;18.960;2023-04-01T04:53:20;41894.81;;;-144.43;100.00
37486;BME280;23341;50.296;18.960;2023-04-01T04:58:26;42000.53;;;-144.43;100.00
37486;BME280;23341;50.296;18.960;2023-04-01T05:03:31;42152.16;;;-144.43;100.00
37486;BME280;23341;50.296;18.960;2023-04-01T05:08:36;42170.09;;;-144.43;100.00
37486;BME280;23341;50.296;18.960;2023-04-01T05:13:44;42219.97;;;-144.43;100.00
37486;BME280;23341;50.296;18.960;2023-04-01T05:18:49;42194.03;;;-144.43;100.00
37486;BME280;23341;50.296;18.960;2023-04-01T05:23:53;42225.97;;;-144.43;100.00
37486;BME280;23341;50.296;18.960;2023-04-01T05:29:01;42074.34;;;-144.43;100.00
37486;BME280;23341;50.296;18.960;2023-04-01T05:34:05;42070.34;;;-144.43;100.00
37486;BME280;23341;50.296;18.960;2023-04-01T05:39:10;42050.41;;;-144.43;100.00
37486;BME280;23341;50.296;18.960;2023-04-01T05:44:17;42026.47;;;-144.43;100.00
37486;BME280;23341;50.296;18.960;2023-04-01T05:49:44;42048.41;;;-144.43;100.00
37486;BME280;23341;50.296;18.960;2023-04-01T05:54:49;42048.41;;;-144.43;100.00
37486;BME280;23341;50.296;18.960;2023-04-01T05:59:55;42114.25;;;-144.43;100.00
37486;BME280;23341;50.296;18.960;2023-04-01T06:05:18;42138.19;;;-144.43;100.00
37486;BME280;23341;50.296;18.960;2023-04-01T06:10:25;42078.34;;;-144.43;100.00
37486;BME280;23341;50.296;18.960;2023-04-01T06:15:39;42215.97;;;-144.43;100.00
37486;BME280;23341;50.296;18.960;2023-04-01T06:20:53;42343.66;;;-144.43;100.00
37486;BME280;23341;50.296;18.960;2023-04-01T06:26:12;42375.59;;;-144.43;100.00
37486;BME280;23341;50.296;18.960;2023-04-01T06:31:46;42327.72;;;-144.43;100.00
37486;BME280;23341;50.296;18.960;2023-04-01T06:37:04;42345.66;;;-144.43;100.00
37486;BME280;23341;50.296;18.960;2023-04-01T06:42:30;42419.47;;;-144.43;100.00
37486;BME280;23341;50.296;18.960;2023-04-01T06:47:54;42481.34;;;-144.43;100.00
37486;BME280;23341;50.296;18.960;2023-04-01T06:53:25;42393.53;;;-144.43;100.00
37486;BME280;23341;50.296;18.960;2023-04-01T06:58:54;42309.75;;;-144.43;100.00
37486;BME280;23341;50.296;18.960;2023-04-01T07:04:05;42253.88;;;-144.43;100.00
37486;BME280;23341;50.296;18.960;2023-04-01T07:09:12;42221.97;;;-144.43;100.00
37486;BME280;23341;50.296;18.960;2023-04-01T07:14:39;42259.88;;;-144.43;100.00
37486;BME280;23341;50.296;18.960;2023-04-01T07:19:50;42279.81;;;-144.43;100.00
37486;BME280;23341;50.296;18.960;2023-04-01T07:24:57;42233.94;;;-144.43;100.00
37486;BME280;23341;50.296;18.960;2023-04-01T07:30:13;42118.22;;;-144.43;100.00
37486;BME280;23341;50.296;18.960;2023-04-01T07:35:24;41954.66;;;-144.43;100.00
37486;BME280;23341;50.296;18.960;2023-04-01T07:40:40;41944.66;;;-144.43;100.00
37486;BME280;23341;50.296;18.960;2023-04-01T07:45:56;42026.47;;;-144.43;100.00
37486;BME280;23341;50.296;18.960;2023-04-01T07:51:13;42196.03;;;-144.43;100.00
37486;BME280;23341;50.296;18.960;2023-04-01T07:56:25;42208.00;;;-144.43;100.00
37486;BME280;23341;50.296;18.960;2023-04-01T08:01:37;42150.16;;;-144.43;100.00
37486;BME280;23341;50.296;18.960;2023-04-01T08:06:51;42180.06;;;-144.43;100.00
37486;BME280;23341;50.296;18.960;2023-04-01T08:12:07;42186.06;;;-144.43;100.00
37486;BME280;23341;50.296;18.960;2023-04-01T08:17:41;42188.06;;;-144.43;100.00
37486;BME280;23341;50.296;18.960;2023-04-01T08:22:55;42237.94;;;-144.43;100.00
37486;BME280;23341;50.296;18.960;2023-04-01T08:28:12;42257.88;;;-144.43;100.00
37486;BME280;23341;50.296;18.960;2023-04-01T08:33:22;42204.00;;;-144.43;100.00
37486;BME280;23341;50.296;18.960;2023-04-01T08:38:41;42299.78;;;-144.43;100.00
37486;BME280;23341;50.296;18.960;2023-04-01T08:44:17;42365.63;;;-144.43;100.00
37486;BME280;23341;50.296;18.960;2023-04-01T08:49:34;42176.09;;;-144.43;100.00
37486;BME280;23341;50.296;18.960;2023-04-01T09:00:51;42229.94;;;-144.43;100.00
37486;BME280;23341;50.296;18.960;2023-04-01T09:06:24;42100.28;;;-144.43;100.00
37486;BME280;23341;50.296;18.960;2023-04-01T09:11:42;42219.97;;;-144.43;100.00
37486;BME280;23341;50.296;18.960;2023-04-01T09:17:31;42178.06;;;-144.43;100.00
37486;BME280;23341;50.296;18.960;2023-04-01T09:22:50;42008.50;;;-144.43;100.00
37486;BME280;23341;50.296;18.960;2023-04-01T09:28:09;41884.81;;;-144.43;100.00
37486;BME280;23341;50.296;18.960;2023-04-01T09:33:36;42000.53;;;-144.43;100.00
37486;BME280;23341;50.296;18.960;2023-04-01T09:38:55;41984.56;;;-144.43;100.00
37486;BME280;23341;50.296;18.960;2023-04-01T09:44:03;41906.78;;;-144.43;100.00
37486;BME280;23341;50.296;18.960;2023-04-01T09:49:58;41844.94;;;-144.43;100.00
37486;BME280;23341;50.296;18.960;2023-04-01T10:01:06;41898.78;;;-144.43;100.00
37486;BME280;23341;50.296;18.960;2023-04-01T10:17:59;41815.00;;;-144.43;100.00
37486;BME280;23341;50.296;18.960;2023-04-01T10:23:46;41878.84;;;-144.43;100.00
37486;BME280;23341;50.296;18.960;2023-04-01T10:29:21;41984.56;;;-144.43;100.00
37486;BME280;23341;50.296;18.960;2023-04-01T10:35:10;42014.50;;;-144.43;100.00
37486;BME280;23341;50.296;18.960;2023-04-01T10:40:50;41986.56;;;-144.43;100.00
37486;BME280;23341;50.296;18.960;2023-04-01T10:46:27;42068.34;;;-144.43;100.00
37486;BME280;23341;50.296;18.960;2023-04-01T10:58:04;42202.03;;;-144.43;100.00
37486;BME280;23341;50.296;18.960;2023-04-01T11:27:33;42373.59;;;-144.43;98.30
37486;BME280;23341;50.296;18.960;2023-04-01T11:32:52;42555.16;;;-144.43;95.45
37486;BME280;23341;50.296;18.960;2023-04-01T11:38:04;42473.34;;;-144.43;91.71
37486;BME280;23341;50.296;18.960;2023-04-01T11:43:27;42507.25;;;-144.43;91.96
37486;BME280;23341;50.296;18.960;2023-04-01T11:49:04;42459.38;;;-144.43;94.21
37486;BME280;23341;50.296;18.960;2023-04-01T11:54:31;42513.25;;;-144.43;94.50
37486;BME280;23341;50.296;18.960;2023-04-01T12:00:02;42489.31;;;-144.43;96.86
37486;BME280;23341;50.296;18.960;2023-04-01T12:05:38;42517.25;;;-144.43;96.68
37486;BME280;23341;50.296;18.960;2023-04-01T12:10:51;42545.19;;;-144.43;96.23
37486;BME280;23341;50.296;18.960;2023-04-01T12:16:08;42457.38;;;-144.43;97.27
37486;BME280;23341;50.296;18.960;2023-04-01T12:21:23;42561.13;;;-144.43;98.55
37486;BME280;23341;50.296;18.960;2023-04-01T12:26:43;42573.09;;;-144.43;98.19
37486;BME280;23341;50.296;18.960;2023-04-01T12:32:00;42581.09;;;-144.43;97.15
37486;BME280;23341;50.296;18.960;2023-04-01T12:37:13;42746.69;;;-144.43;96.31
37486;BME280;23341;50.296;18.960;2023-04-01T12:42:35;42806.56;;;-144.43;93.51
37486;BME280;23341;50.296;18.960;2023-04-01T12:48:08;42726.75;;;-144.43;91.12
37486;BME280;23341;50.296;18.960;2023-04-01T12:53:31;42754.69;;;-144.43;89.21
37486;BME280;23341;50.296;18.960;2023-04-01T13:10:31;42740.72;;;-144.43;91.42
37486;BME280;23341;50.296;18.960;2023-04-01T13:15:41;42854.44;;;-144.43;91.13
37486;BME280;23341;50.296;18.960;2023-04-01T13:20:57;42864.41;;;-144.43;90.17
37486;BME280;23341;50.296;18.960;2023-04-01T13:26:13;42974.16;;;-144.43;89.63
37486;BME280;23341;50.296;18.960;2023-04-01T13:31:29;42936.25;;;-144.43;87.45
37486;BME280;23341;50.296;18.960;2023-04-01T13:36:44;42916.28;;;-144.43;87.84
37486;BME280;23341;50.296;18.960;2023-04-01T13:42:17;42810.53;;;-144.43;87.12
37486;BME280;23341;50.296;18.960;2023-04-01T13:58:59;42469.34;;;-144.43;100.00
37486;BME280;23341;50.296;18.960;2023-04-01T14:04:17;42325.72;;;-144.43;100.00
37486;BME280;23341;50.296;18.960;2023-04-01T14:09:41;42237.94;;;-144.43;100.00
37486;BME280;23341;50.296;18.960;2023-04-01T14:20:37;42257.88;;;-144.43;100.00
37486;BME280;23341;50.296;18.960;2023-04-01T14:26:00;42235.94;;;-144.43;100.00
37486;BME280;23341;50.296;18.960;2023-04-01T14:36:50;42217.97;;;-144.43;100.00
37486;BME280;23341;50.296;18.960;2023-04-01T14:42:08;42329.69;;;-144.43;100.00
37486;BME280;23341;50.296;18.960;2023-04-01T14:47:47;42339.69;;;-144.43;100.00
37486;BME280;23341;50.296;18.960;2023-04-01T14:53:10;42291.78;;;-144.43;100.00
37486;BME280;23341;50.296;18.960;2023-04-01T14:58:17;42305.75;;;-144.43;100.00
37486;BME280;23341;50.296;18.960;2023-04-01T15:03:28;42311.75;;;-144.43;100.00
37486;BME280;23341;50.296;18.960;2023-04-01T15:08:35;42158.13;;;-144.43;100.00
37486;BME280;23341;50.296;18.960;2023-04-01T15:14:12;42212.00;;;-144.43;100.00
37486;BME280;23341;50.296;18.960;2023-04-01T15:19:34;42168.09;;;-144.43;100.00
37486;BME280;23341;50.296;18.960;2023-04-01T15:24:46;42190.06;;;-144.43;100.00
37486;BME280;23341;50.296;18.960;2023-04-01T15:30:14;42166.09;;;-144.43;100.00
37486;BME280;23341;50.296;18.960;2023-04-01T15:35:32;42176.09;;;-144.43;100.00
37486;BME280;23341;50.296;18.960;2023-04-01T15:40:43;42104.25;;;-144.43;100.00
37486;BME280;23341;50.296;18.960;2023-04-01T15:45:55;42062.38;;;-144.43;100.00
37486;BME280;23341;50.296;18.960;2023-04-01T15:51:15;41938.69;;;-144.43;100.00
37486;BME280;23341;50.296;18.960;2023-04-01T15:56:42;41934.69;;;-144.43;100.00
37486;BME280;23341;50.296;18.960;2023-04-01T16:01:55;41932.69;;;-144.43;100.00
37486;BME280;23341;50.296;18.960;2023-04-01T16:07:10;41856.91;;;-144.43;100.00
37486;BME280;23341;50.296;18.960;2023-04-01T16:12:27;41801.03;;;-144.43;100.00
37486;BME280;23341;50.296;18.960;2023-04-01T16:17:53;41755.16;;;-144.43;100.00
37486;BME280;23341;50.296;18.960;2023-04-01T16:23:11;41771.13;;;-144.43;100.00
37486;BME280;23341;50.296;18.960;2023-04-01T16:28:23;41747.19;;;-144.43;100.00
37486;BME280;23341;50.296;18.960;2023-04-01T16:33:36;41655.44;;;-144.43;100.00
37486;BME280;23341;50.296;18.960;2023-04-01T16:38:51;41573.63;;;-144.43;100.00
37486;BME280;23341;50.296;18.960;2023-04-01T16:44:10;41451.97;;;-144.43;100.00
37486;BME280;23341;50.296;18.960;2023-04-01T16:49:32;41308.34;;;-144.43;100.00
37486;BME280;23341;50.296;18.960;2023-04-01T16:54:47;41248.53;;;-144.43;100.00
37486;BME280;23341;50.296;18.960;2023-04-01T16:59:57;41134.84;;;-144.43;100.00
37486;BME280;23341;50.296;18.960;2023-04-01T17:05:09;41150.78;;;-144.43;100.00
37486;BME280;23341;50.296;18.960;2023-04-01T17:10:33;41120.88;;;-144.43;100.00
37486;BME280;23341;50.296;18.960;2023-04-01T17:15:44;41106.91;;;-144.43;100.00
37486;BME280;23341;50.296;18.960;2023-04-01T17:20:56;41100.94;;;-144.43;100.00
37486;BME280;23341;50.296;18.960;2023-04-01T17:26:13;41104.91;;;-144.43;100.00
37486;BME280;23341;50.296;18.960;2023-04-01T17:31:37;41077.00;;;-144.43;100.00
37486;BME280;23341;50.296;18.960;2023-04-01T17:36:57;41075.00;;;-144.43;100.00
37486;BME280;23341;50.296;18.960;2023-04-01T17:42:09;41017.16;;;-144.43;100.00
37486;BME280;23341;50.296;18.960;2023-04-01T17:47:29;40989.25;;;-144.43;100.00
37486;BME280;23341;50.296;18.960;2023-04-01T17:52:39;41045.09;;;-144.43;100.00
37486;BME280;23341;50.296;18.960;2023-04-01T17:57:53;41025.13;;;-144.43;100.00
37486;BME280;23341;50.296;18.960;2023-04-01T18:03:11;41009.19;;;-144.43;100.00
37486;BME280;23341;50.296;18.960;2023-04-01T18:08:26;40961.31;;;-144.43;100.00
37486;BME280;23341;50.296;18.960;2023-04-01T18:14:01;40985.25;;;-144.43;100.00
37486;BME280;23341;50.296;18.960;2023-04-01T18:19:14;40939.38;;;-144.43;100.00
37486;BME280;23341;50.296;18.960;2023-04-01T18:24:26;40959.31;;;-144.43;100.00
37486;BME280;23341;50.296;18.960;2023-04-01T18:29:39;40957.34;;;-144.43;100.00
37486;BME280;23341;50.296;18.960;2023-04-01T18:34:53;40945.38;;;-144.43;100.00
37486;BME280;23341;50.296;18.960;2023-04-01T18:40:12;40933.41;;;-144.43;100.00
37486;BME280;23341;50.296;18.960;2023-04-01T18:45:27;40923.44;;;-144.43;100.00
37486;BME280;23341;50.296;18.960;2023-04-01T18:50:37;40933.41;;;-144.43;100.00
37486;BME280;23341;50.296;18.960;2023-04-01T18:55:47;40921.44;;;-144.43;100.00
37486;BME280;23341;50.296;18.960;2023-04-01T19:01:04;40913.44;;;-144.43;100.00
37486;BME280;23341;50.296;18.960;2023-04-01T19:06:20;40889.53;;;-144.43;100.00
37486;BME280;23341;50.296;18.960;2023-04-01T19:11:33;40907.47;;;-144.43;100.00
37486;BME280;23341;50.296;18.960;2023-04-01T19:16:49;40795.78;;;-144.43;100.00
37486;BME280;23341;50.296;18.960;2023-04-01T19:22:03;40805.75;;;-144.43;100.00
37486;BME280;23341;50.296;18.960;2023-04-01T19:27:25;40821.72;;;-144.43;100.00
37486;BME280;23341;50.296;18.960;2023-04-01T19:32:43;40771.84;;;-144.43;100.00
37486;BME280;23341;50.296;18.960;2023-04-01T19:37:54;40777.84;;;-144.43;100.00
37486;BME280;23341;50.296;18.960;2023-04-01T19:43:04;40706.03;;;-144.43;100.00
37486;BME280;23341;50.296;18.960;2023-04-01T19:48:34;40757.91;;;-144.43;100.00
37486;BME280;23341;50.296;18.960;2023-04-01T19:53:45;40739.94;;;-144.43;100.00
37486;BME280;23341;50.296;18.960;2023-04-01T19:58:56;40720.00;;;-144.43;100.00
37486;BME280;23341;50.296;18.960;2023-04-01T20:04:06;40688.09;;;-144.43;100.00
37486;BME280;23341;50.296;18.960;2023-04-01T20:09:28;40700.06;;;-144.43;100.00
37486;BME280;23341;50.296;18.960;2023-04-01T20:14:42;40696.06;;;-144.43;100.00
37486;BME280;23341;50.296;18.960;2023-04-01T20:19:55;40670.16;;;-144.43;100.00
37486;BME280;23341;50.296;18.960;2023-04-01T20:25:08;40640.22;;;-144.43;100.00
37486;BME280;23341;50.296;18.960;2023-04-01T20:30:43;40616.31;;;-144.43;100.00
37486;BME280;23341;50.296;18.960;2023-04-01T20:36:05;40534.53;;;-144.43;100.00
37486;BME280;23341;50.296;18.960;2023-04-01T20:41:14;40566.44;;;-144.43;100.00
37486;BME280;23341;50.296;18.960;2023-04-01T20:46:32;40582.41;;;-144.43;100.00
37486;BME280;23341;50.296;18.960;2023-04-01T20:51:43;40556.47;;;-144.43;100.00
37486;BME280;23341;50.296;18.960;2023-04-01T20:56:57;40574.44;;;-144.43;100.00
37486;BME280;23341;50.296;18.960;2023-04-01T21:02:20;40524.56;;;-144.43;100.00
37486;BME280;23341;50.296;18.960;2023-04-01T21:07:34;40556.47;;;-144.43;100.00
37486;BME280;23341;50.296;18.960;2023-04-01T21:12:50;40510.63;;;-144.43;100.00
37486;BME280;23341;50.296;18.960;2023-04-01T21:18:09;40500.66;;;-144.43;100.00
37486;BME280;23341;50.296;18.960;2023-04-01T21:23:24;40458.75;;;-144.43;100.00
37486;BME280;23341;50.296;18.960;2023-04-01T21:28:46;40434.84;;;-144.43;100.00
37486;BME280;23341;50.296;18.960;2023-04-01T21:34:07;40420.88;;;-144.43;100.00
37486;BME280;23341;50.296;18.960;2023-04-01T21:39:37;40422.88;;;-144.43;100.00
37486;BME280;23341;50.296;18.960;2023-04-01T21:45:09;40424.88;;;-144.43;100.00
37486;BME280;23341;50.296;18.960;2023-04-01T21:50:42;40456.78;;;-144.43;100.00
37486;BME280;23341;50.296;18.960;2023-04-01T22:07:17;40464.75;;;-144.43;100.00
37486;BME280;23341;50.296;18.960;2023-04-01T22:12:28;40422.88;;;-144.43;100.00
37486;BME280;23341;50.296;18.960;2023-04-01T22:17:38;40454.78;;;-144.43;100.00
37486;BME280;23341;50.296;18.960;2023-04-01T22:22:58;40444.81;;;-144.43;100.00
37486;BME280;23341;50.296;18.960;2023-04-01T22:28:08;40402.94;;;-144.43;100.00
37486;BME280;23341;50.296;18.960;2023-04-01T22:33:16;40414.91;;;-144.43;100.00
37486;BME280;23341;50.296;18.960;2023-04-01T22:38:37;40416.88;;;-144.43;100.00
37486;BME280;23341;50.296;18.960;2023-04-01T22:43:47;40361.06;;;-144.43;100.00
37486;BME280;23341;50.296;18.960;2023-04-01T22:48:54;40341.13;;;-144.43;100.00
37486;BME280;23341;50.296;18.960;2023-04-01T22:54:13;40367.03;;;-144.43;100.00
37486;BME280;23341;50.296;18.960;2023-04-01T22:59:26;40341.13;;;-144.43;100.00
37486;BME280;23341;50.296;18.960;2023-04-01T23:04:37;40341.13;;;-144.43;100.00
37486;BME280;23341;50.296;18.960;2023-04-01T23:09:44;40303.22;;;-144.43;100.00
37486;BME280;23341;50.296;18.960;2023-04-01T23:14:50;40299.25;;;-144.43;100.00
37486;BME280;23341;50.296;18.960;2023-04-01T23:20:00;40239.41;;;-144.43;100.00
37486;BME280;23341;50.296;18.960;2023-04-01T23:25:21;40227.44;;;-144.43;100.00
37486;BME280;23341;50.296;18.960;2023-04-01T23:30:48;40241.41;;;-144.43;100.00
37486;BME280;23341;50.296;18.960;2023-04-01T23:35:56;40247.41;;;-144.43;100.00
37486;BME280;23341;50.296;18.960;2023-04-01T23:41:17;40211.50;;;-144.43;100.00
37486;BME280;23341;50.296;18.960;2023-04-01T23:46:23;40189.56;;;-144.43;100.00
37486;BME280;23341;50.296;18.960;2023-04-01T23:51:36;40201.53;;;-144.43;100.00
37486;BME280;23341;50.296;18.960;2023-04-01T23:56:45;40207.50;;;-144.43;100.00
